Time;durP1;ratioP1;P1;durP2;ratioP2;P2;SDS_P1;SDS_P2;PMS_P1;PMS_P2;Temp;Humidity;BMP_temperature;BMP_pressure;BME280_temperature;BME280_humidity;BME280_pressure;Samples;Min_cycle;Max_cycle;Signal;HPM_P1;HPM_P2
2022/07/18 00:01:35;;;;;;;1.42;1.15;;;;;;;17.52;86.41;102451.16;5046766;28;20421;-70
2022/07/18 00:04:01;;;;;;;3.13;1.45;;;;;;;17.66;88.02;102481.81;5038016;28;20056;-69
2022/07/18 00:06:27;;;;;;;6.38;1.92;;;;;;;17.56;89.30;102467.72;5046451;28;20048;-70
2022/07/18 00:08:52;;;;;;;3.83;1.63;;;;;;;17.49;89.92;102478.16;5038963;28;20041;-69
2022/07/18 00:11:18;;;;;;;3.97;2.13;;;;;;;17.44;89.79;102465.28;5047706;28;20374;-69
2022/07/18 00:13:44;;;;;;;4.28;2.33;;;;;;;17.38;91.57;102465.09;5044762;28;20021;-68
2022/07/18 00:16:09;;;;;;;3.88;1.95;;;;;;;17.34;90.74;102477.06;5041335;28;20151;-69
2022/07/18 00:18:35;;;;;;;2.67;2.00;;;;;;;17.27;92.07;102479.50;5041988;28;20091;-69
2022/07/18 00:21:00;;;;;;;5.25;1.70;;;;;;;17.26;89.98;102478.66;5041616;28;20673;-68
2022/07/18 00:23:26;;;;;;;4.65;2.35;;;;;;;17.26;89.54;102472.47;5050220;28;20033;-69
2022/07/18 00:25:51;;;;;;;5.45;2.60;;;;;;;17.12;90.00;102449.03;5041389;28;20021;-69
2022/07/18 00:28:17;;;;;;;4.70;2.22;;;;;;;17.26;88.06;102472.47;5038723;28;20053;-68
2022/07/18 00:30:43;;;;;;;3.33;1.35;;;;;;;17.26;88.88;102464.47;5044968;28;20510;-69
2022/07/18 00:33:08;;;;;;;3.00;1.85;;;;;;;17.15;88.29;102438.03;5038061;28;20045;-68
2022/07/18 00:35:34;;;;;;;3.75;2.33;;;;;;;17.26;87.62;102462.63;5043091;28;20397;-69
2022/07/18 00:38:01;;;;;;;3.78;1.70;;;;;;;17.23;88.81;102470.97;5042167;28;20030;-69
2022/07/18 00:40:27;;;;;;;3.30;1.85;;;;;;;17.20;87.78;102471.28;5049275;28;20142;-68
2022/07/18 00:42:53;;;;;;;2.65;1.40;;;;;;;17.18;87.79;102465.25;5041296;28;20628;-69
2022/07/18 00:45:18;;;;;;;4.38;1.65;;;;;;;17.13;86.60;102459.53;5044401;28;20088;-69
2022/07/18 00:47:43;;;;;;;3.13;1.70;;;;;;;17.16;85.38;102467.25;5040856;28;20029;-69
2022/07/18 00:50:09;;;;;;;3.67;1.83;;;;;;;17.20;86.72;102463.28;5046762;28;20033;-69
2022/07/18 00:52:36;;;;;;;2.65;1.40;;;;;;;17.20;86.53;102465.09;5045193;28;20113;-69
2022/07/18 00:55:03;;;;;;;2.53;1.77;;;;;;;17.18;86.98;102465.25;5040642;28;20032;-69
2022/07/18 00:57:28;;;;;;;3.22;1.65;;;;;;;17.13;87.57;102462.19;5041293;28;20040;-69
2022/07/18 01:02:39;;;;;;;5.68;1.80;;;;;;;16.99;88.52;102458.25;5036204;28;20120;-68
2022/07/18 01:05:06;;;;;;;3.42;2.05;;;;;;;16.94;88.13;102446.34;5042659;28;20025;-68
2022/07/18 01:07:32;;;;;;;3.92;2.63;;;;;;;16.96;87.32;102460.38;5038708;28;20128;-68
2022/07/18 01:09:57;;;;;;;2.28;1.48;;;;;;;16.98;86.10;102455.72;5042555;28;20100;-68
2022/07/18 01:12:25;;;;;;;4.50;2.25;;;;;;;16.94;88.28;102455.22;5042894;28;20040;-68
2022/07/18 01:14:50;;;;;;;3.28;2.35;;;;;;;16.85;89.03;102454.31;5042445;28;20021;-68
2022/07/18 01:17:18;;;;;;;4.97;2.63;;;;;;;16.79;90.15;102448.72;5038912;28;20048;-68
2022/07/18 01:19:44;;;;;;;4.22;1.92;;;;;;;16.74;89.75;102441.13;5035544;28;20029;-68
2022/07/18 01:22:10;;;;;;;5.80;1.52;;;;;;;16.74;89.06;102451.81;5043596;28;20037;-67
2022/07/18 01:24:36;;;;;;;3.30;2.30;;;;;;;16.74;89.17;102451.81;5039744;28;20481;-68
2022/07/18 01:27:01;;;;;;;4.40;1.95;;;;;;;16.75;87.89;102458.00;5049076;28;20036;-68
2022/07/18 01:29:27;;;;;;;3.38;1.65;;;;;;;16.76;87.02;102447.16;5042263;28;20028;-67
2022/07/18 01:31:52;;;;;;;3.72;1.88;;;;;;;16.78;87.61;102445.19;5046215;28;20433;-67
2022/07/18 01:34:22;;;;;;;5.32;1.90;;;;;;;16.76;85.78;102452.50;5039164;28;20079;-68
2022/07/18 01:36:48;;;;;;;5.70;1.90;;;;;;;16.74;85.06;102446.47;5037679;28;20064;-68
2022/07/18 01:39:13;;;;;;;2.30;1.50;;;;;;;16.75;85.93;102450.84;5045551;28;20501;-68
2022/07/18 01:41:40;;;;;;;4.30;2.08;;;;;;;16.76;86.89;102444.50;5041223;28;20055;-68
2022/07/18 01:44:06;;;;;;;5.20;2.35;;;;;;;16.66;89.34;102427.75;5038188;28;20022;-67
2022/07/18 01:46:31;;;;;;;3.25;2.03;;;;;;;16.66;87.76;102427.75;5036042;28;20029;-67
2022/07/18 01:48:56;;;;;;;3.53;1.85;;;;;;;16.63;88.17;102428.03;5044625;28;20048;-67
2022/07/18 01:51:22;;;;;;;5.20;1.98;;;;;;;16.53;87.95;102416.63;5032437;28;20030;-68
2022/07/18 01:53:55;;;;;;;4.15;1.90;;;;;;;16.63;88.92;102438.69;5038847;28;20124;-67
2022/07/18 01:56:21;;;;;;;3.28;1.67;;;;;;;16.62;88.39;102439.72;5037712;28;20043;-68
2022/07/18 01:58:46;;;;;;;5.57;2.28;;;;;;;16.55;86.88;102418.16;5035439;28;20029;-67
2022/07/18 02:01:12;;;;;;;5.05;2.40;;;;;;;16.60;88.34;102439.00;5041011;28;20041;-68
2022/07/18 02:03:37;;;;;;;4.95;3.03;;;;;;;16.57;89.04;102439.31;5044045;28;20052;-67
2022/07/18 02:06:03;;;;;;;3.80;2.53;;;;;;;16.58;88.57;102431.16;5039783;28;20049;-68
2022/07/18 02:08:28;;;;;;;5.68;2.33;;;;;;;16.49;89.51;102423.25;5041826;28;20027;-68
2022/07/18 02:10:54;;;;;;;5.00;2.70;;;;;;;16.39;90.48;102425.97;5040989;28;20021;-68
2022/07/18 02:13:20;;;;;;;7.68;2.63;;;;;;;16.35;90.75;102429.91;5037818;28;20029;-67
2022/07/18 02:15:46;;;;;;;5.10;2.25;;;;;;;16.29;90.27;102426.03;5044086;28;20044;-67
2022/07/18 02:18:11;;;;;;;3.88;2.38;;;;;;;16.28;89.13;102424.34;5036575;28;20032;-67
2022/07/18 02:20:38;;;;;;;3.05;2.08;;;;;;;16.27;90.28;102420.00;5034541;28;20052;-67
2022/07/18 02:23:04;;;;;;;5.47;3.42;;;;;;;16.17;91.05;102416.56;5029290;28;20405;-68
2022/07/18 02:25:29;;;;;;;5.32;2.47;;;;;;;16.12;92.13;102418.84;5044522;28;20033;-68
2022/07/18 02:27:54;;;;;;;4.10;2.17;;;;;;;16.11;91.37;102417.13;5041769;28;20077;-67
2022/07/18 02:30:20;;;;;;;2.60;1.92;;;;;;;16.08;90.23;102415.63;5044027;28;20017;-67
2022/07/18 02:32:45;;;;;;;7.70;2.95;;;;;;;16.16;91.11;102422.88;5036550;28;20037;-67
2022/07/18 02:35:11;;;;;;;4.68;2.50;;;;;;;16.05;91.71;102418.59;5044670;28;20033;-68
2022/07/18 02:37:37;;;;;;;5.65;2.15;;;;;;;15.97;92.26;102411.31;5037493;28;20492;-68
2022/07/18 02:40:06;;;;;;;3.67;3.03;;;;;;;15.93;92.76;102415.25;5038228;28;20153;-67
2022/07/18 02:42:31;;;;;;;5.18;3.00;;;;;;;15.88;92.85;102411.38;5040624;28;20611;-67
2022/07/18 02:44:56;;;;;;;4.97;2.83;;;;;;;15.81;93.12;102417.28;5040643;28;20166;-67
2022/07/18 02:47:22;;;;;;;5.25;2.95;;;;;;;15.80;92.86;102414.75;5032721;28;20053;-67
2022/07/18 02:49:47;;;;;;;5.68;3.25;;;;;;;15.74;93.14;102415.34;5035053;28;20493;-67
2022/07/18 02:52:13;;;;;;;9.50;3.55;;;;;;;15.68;93.16;102406.09;5045005;28;20087;-68
2022/07/18 02:54:38;;;;;;;6.35;2.35;;;;;;;15.60;93.37;102393.50;5037603;28;20124;-68
2022/07/18 02:57:04;;;;;;;3.95;2.28;;;;;;;15.53;93.81;102381.78;5036663;28;20439;-68
2022/07/18 02:59:29;;;;;;;9.52;3.38;;;;;;;15.49;93.92;102385.69;5046153;28;20049;-68
2022/07/18 03:01:56;;;;;;;4.78;3.10;;;;;;;15.48;93.77;102386.66;5033878;28;20076;-68
2022/07/18 03:04:22;;;;;;;5.38;2.60;;;;;;;15.37;94.95;102381.53;5043037;28;20528;-68
2022/07/18 03:06:48;;;;;;;5.18;2.80;;;;;;;15.34;95.17;102387.97;5039860;28;20104;-67
2022/07/18 03:09:14;;;;;;;6.05;2.75;;;;;;;15.37;95.17;102382.38;5041064;28;20029;-67
2022/07/18 03:11:40;;;;;;;5.72;2.97;;;;;;;15.40;95.09;102387.41;5037834;28;20033;-67
2022/07/18 03:14:06;;;;;;;5.05;2.72;;;;;;;15.47;95.28;102390.31;5036061;28;20091;-68
2022/07/18 03:16:31;;;;;;;4.90;3.08;;;;;;;15.47;94.17;102387.66;5038647;28;20033;-68
2022/07/18 03:18:57;;;;;;;5.68;3.08;;;;;;;15.29;94.32;102362.81;5044001;28;20528;-68
2022/07/18 03:21:23;;;;;;;5.95;2.55;;;;;;;15.25;94.61;102367.56;5039934;28;20503;-68
2022/07/18 03:23:48;;;;;;;7.97;3.70;;;;;;;15.13;95.58;102356.22;5039176;28;20078;-68
2022/07/18 03:26:13;;;;;;;4.70;2.33;;;;;;;15.07;95.13;102359.50;5044414;28;20021;-68
2022/07/18 03:28:39;;;;;;;4.88;2.05;;;;;;;15.16;95.11;102368.44;5042488;28;20063;-68
2022/07/18 03:31:05;;;;;;;4.85;2.33;;;;;;;15.26;94.29;102379.03;5041411;28;20018;-67
2022/07/18 03:33:30;;;;;;;6.53;3.22;;;;;;;15.32;93.67;102367.81;5040919;28;20091;-68
2022/07/18 03:35:56;;;;;;;6.47;2.15;;;;;;;15.22;93.67;102351.88;5038662;28;20035;-68
2022/07/18 03:38:21;;;;;;;7.68;3.00;;;;;;;15.13;93.88;102348.25;5037638;28;20083;-68
2022/07/18 03:40:47;;;;;;;6.60;3.70;;;;;;;15.01;93.54;102344.94;5045050;28;20059;-68
2022/07/18 03:43:12;;;;;;;5.57;3.05;;;;;;;15.13;93.88;102361.56;5038588;28;20018;-68
2022/07/18 03:45:37;;;;;;;4.40;2.65;;;;;;;15.22;93.14;102367.84;5034952;28;20025;-68
2022/07/18 03:48:03;;;;;;;6.13;2.70;;;;;;;15.23;92.89;102358.88;5039052;28;20460;-68
2022/07/18 03:50:28;;;;;;;4.93;2.80;;;;;;;15.12;92.80;102359.88;5044565;28;20104;-68
2022/07/18 03:52:54;;;;;;;9.00;2.13;;;;;;;15.08;93.49;102374.44;5045524;28;20028;-68
2022/07/18 03:55:20;;;;;;;7.05;2.72;;;;;;;15.02;94.04;102367.03;5042589;28;20033;-68
2022/07/18 03:57:45;;;;;;;7.88;2.95;;;;;;;14.98;94.18;102371.81;5044410;28;20548;-68
2022/07/18 04:00:12;;;;;;;4.78;2.47;;;;;;;14.95;94.06;102365.94;5039838;28;20045;-68
2022/07/18 04:02:41;;;;;;;5.15;2.88;;;;;;;14.91;94.13;102357.38;5041630;28;20036;-68
2022/07/18 04:05:08;;;;;;;7.20;3.20;;;;;;;14.85;94.48;102359.78;5043099;28;20432;-68
2022/07/18 04:07:33;;;;;;;3.88;3.08;;;;;;;14.80;94.60;102353.06;5039630;28;20037;-68
2022/07/18 04:09:58;;;;;;;6.15;3.03;;;;;;;14.77;94.24;102349.88;5043034;28;20091;-68
2022/07/18 04:12:24;;;;;;;7.13;3.42;;;;;;;14.77;94.12;102336.59;5039347;28;20464;-67
2022/07/18 04:14:49;;;;;;;9.15;3.25;;;;;;;14.85;93.52;102330.53;5040931;28;20032;-68
2022/07/18 04:17:15;;;;;;;4.97;3.60;;;;;;;14.93;92.83;102317.38;5035671;28;20813;-68
2022/07/18 04:19:40;;;;;;;3.50;2.35;;;;;;;15.01;92.73;102314.84;5037339;28;20540;-68
2022/07/18 04:22:05;;;;;;;4.85;2.20;;;;;;;15.02;92.21;102314.72;5039896;28;20455;-68
2022/07/18 04:24:31;;;;;;;4.20;3.08;;;;;;;15.17;91.90;102331.03;5029282;28;20037;-68
2022/07/18 04:26:56;;;;;;;4.55;2.70;;;;;;;15.19;91.70;102333.56;5047148;28;20044;-68
2022/07/18 04:29:21;;;;;;;7.88;3.08;;;;;;;15.13;92.02;102337.63;5042285;28;20017;-68
2022/07/18 04:31:47;;;;;;;5.82;3.50;;;;;;;15.23;92.60;102332.28;5037738;28;20072;-68
2022/07/18 04:34:12;;;;;;;4.80;2.60;;;;;;;15.25;92.86;102334.81;5039414;28;20382;-68
2022/07/18 04:36:38;;;;;;;4.00;2.17;;;;;;;15.23;92.61;102324.31;5039847;28;20052;-67
2022/07/18 04:39:03;;;;;;;4.30;2.53;;;;;;;15.18;92.59;102322.09;5040688;28;20033;-67
2022/07/18 04:41:28;;;;;;;4.10;2.65;;;;;;;15.16;92.24;102326.72;5037099;28;20025;-68
2022/07/18 04:43:54;;;;;;;4.50;2.50;;;;;;;15.21;92.20;102328.94;5036652;28;20029;-67
2022/07/18 04:46:19;;;;;;;4.97;2.60;;;;;;;15.22;91.77;102328.81;5043743;28;20438;-68
2022/07/18 04:48:45;;;;;;;5.07;2.00;;;;;;;15.27;91.83;102336.34;5039821;28;20026;-68
2022/07/18 04:51:10;;;;;;;8.65;2.38;;;;;;;15.37;91.69;102323.00;5040269;28;20029;-67
2022/07/18 04:53:36;;;;;;;5.50;1.90;;;;;;;15.44;90.99;102313.47;5041440;28;20357;-69
2022/07/18 04:56:01;;;;;;;5.57;2.65;;;;;;;15.48;90.70;102314.81;5041156;28;20143;-67
2022/07/18 04:58:27;;;;;;;5.35;2.53;;;;;;;15.47;89.96;102296.38;5022205;28;20074;-67
2022/07/18 05:00:53;;;;;;;4.30;1.95;;;;;;;15.66;88.99;102314.06;5037829;28;20813;-68
2022/07/18 05:03:18;;;;;;;4.80;2.92;;;;;;;15.71;89.02;102319.78;5039324;28;20033;-67
2022/07/18 05:05:44;;;;;;;4.78;1.85;;;;;;;15.75;89.25;102321.22;5034835;28;20025;-67
2022/07/18 05:08:11;;;;;;;3.83;2.30;;;;;;;15.71;88.91;102303.81;5037601;28;20037;-68
2022/07/18 05:10:37;;;;;;;4.32;2.45;;;;;;;15.85;88.96;102313.97;5036932;28;20029;-68
2022/07/18 05:13:02;;;;;;;5.93;3.22;;;;;;;15.91;89.52;102308.06;5036346;28;20021;-67
2022/07/18 05:15:28;;;;;;;7.65;2.00;;;;;;;15.93;88.70;102313.25;5037009;28;20025;-68
2022/07/18 05:17:54;;;;;;;5.18;2.17;;;;;;;15.92;88.64;102309.75;5035547;28;20026;-69
2022/07/18 05:20:22;;;;;;;8.40;2.92;;;;;;;15.99;88.95;102308.16;5033503;28;20029;-68
2022/07/18 05:22:48;;;;;;;5.07;2.45;;;;;;;16.02;88.35;102307.84;5035287;28;20041;-67
2022/07/18 05:25:14;;;;;;;5.32;2.85;;;;;;;16.04;88.10;102305.88;5032279;28;20818;-67
2022/07/18 05:27:40;;;;;;;4.32;2.65;;;;;;;16.15;87.81;102311.97;5033764;28;20029;-67
2022/07/18 05:30:10;;;;;;;3.47;1.73;;;;;;;16.23;87.44;102314.75;5032974;28;20539;-68
2022/07/18 05:32:36;;;;;;;5.07;2.67;;;;;;;16.27;87.67;102316.13;5039654;28;20432;-68
2022/07/18 05:35:02;;;;;;;6.10;2.55;;;;;;;16.32;87.16;102311.16;5035792;28;20039;-68
2022/07/18 05:37:27;;;;;;;2.83;1.90;;;;;;;16.30;87.42;102305.13;5035114;28;20550;-68
2022/07/18 05:39:53;;;;;;;3.15;1.58;;;;;;;16.24;86.70;102295.94;5034446;28;20039;-68
2022/07/18 05:42:19;;;;;;;4.05;2.00;;;;;;;16.15;86.73;102275.53;5035793;28;20568;-68
2022/07/18 05:44:44;;;;;;;2.92;1.50;;;;;;;16.33;86.53;102298.66;5031673;28;20083;-68
2022/07/18 05:47:10;;;;;;;5.80;2.47;;;;;;;16.36;86.26;102301.88;5032981;28;20039;-68
2022/07/18 05:49:36;;;;;;;2.40;1.63;;;;;;;16.40;86.04;102289.91;5033761;28;20040;-68
2022/07/18 05:52:01;;;;;;;4.20;2.17;;;;;;;16.37;85.77;102271.56;5035783;28;20098;-68
2022/07/18 05:54:27;;;;;;;4.25;2.00;;;;;;;16.48;84.70;102286.47;5033944;28;20022;-68
2022/07/18 05:56:52;;;;;;;8.10;2.10;;;;;;;16.53;84.22;102288.69;5031727;28;20481;-68
2022/07/18 05:59:19;;;;;;;5.78;2.10;;;;;;;16.60;84.15;102284.41;5034420;28;20061;-68
2022/07/18 06:01:45;;;;;;;2.97;2.17;;;;;;;16.72;83.17;102282.34;5034482;28;20696;-68
2022/07/18 06:04:10;;;;;;;4.60;2.08;;;;;;;16.77;82.03;102278.22;5033849;28;20329;-68
2022/07/18 06:06:36;;;;;;;3.83;2.63;;;;;;;16.88;82.26;102282.50;5037090;28;20504;-68
2022/07/18 06:09:02;;;;;;;2.88;1.50;;;;;;;17.01;81.77;102287.41;5033923;28;20765;-67
2022/07/18 06:11:28;;;;;;;3.00;1.67;;;;;;;17.08;81.67;102283.13;5033379;28;20863;-67
2022/07/18 06:13:53;;;;;;;2.65;1.35;;;;;;;17.19;81.66;102292.69;5033595;28;20029;-67
2022/07/18 06:16:19;;;;;;;3.22;1.50;;;;;;;17.42;81.39;102301.81;5033015;28;20567;-68
2022/07/18 06:18:44;;;;;;;6.07;1.83;;;;;;;17.60;80.70;102296.38;5032307;28;20103;-68
2022/07/18 06:21:09;;;;;;;4.32;2.17;;;;;;;17.85;78.97;102307.16;5036095;28;20485;-68
2022/07/18 06:23:35;;;;;;;5.90;1.70;;;;;;;17.99;77.90;102303.88;5033519;28;20556;-67
2022/07/18 06:26:01;;;;;;;4.07;1.35;;;;;;;18.23;75.35;102310.25;5033154;28;20080;-68
2022/07/18 06:28:28;;;;;;;2.13;1.50;;;;;;;18.37;75.96;102312.25;5035612;28;20017;-68
2022/07/18 06:30:54;;;;;;;6.30;1.83;;;;;;;18.61;75.07;102311.44;5033919;28;20033;-68
2022/07/18 06:33:20;;;;;;;3.50;1.27;;;;;;;18.65;71.86;102311.94;5028695;28;20040;-68
2022/07/18 06:35:46;;;;;;;2.13;1.58;;;;;;;18.63;72.13;102313.94;5034430;28;20036;-68
2022/07/18 06:38:12;;;;;;;3.47;1.13;;;;;;;18.93;73.43;102307.09;5033396;28;20033;-68
2022/07/18 06:40:37;;;;;;;9.13;2.33;;;;;;;19.30;72.54;102313.72;5035257;28;20016;-68
2022/07/18 06:43:03;;;;;;;4.15;1.45;;;;;;;19.70;72.49;102326.13;5026090;28;20128;-68
2022/07/18 06:45:28;;;;;;;3.30;1.60;;;;;;;19.93;69.98;102322.69;5030351;28;20093;-68
2022/07/18 06:47:53;;;;;;;6.07;1.58;;;;;;;20.05;69.77;102307.84;5027180;28;20029;-69
2022/07/18 06:50:19;;;;;;;6.10;2.03;;;;;;;20.42;68.90;102329.56;5026625;28;20111;-68
2022/07/18 06:52:46;;;;;;;3.65;1.20;;;;;;;20.55;68.35;102325.25;5028765;28;20469;-69
2022/07/18 06:55:12;;;;;;;3.30;1.73;;;;;;;20.49;67.86;102317.94;5027844;28;20026;-68
2022/07/18 06:57:39;;;;;;;3.80;1.60;;;;;;;20.58;67.16;102310.69;5025139;28;20104;-69
2022/07/18 07:00:07;;;;;;;3.05;1.13;;;;;;;20.77;65.92;102317.38;5027402;28;20045;-69
2022/07/18 07:02:33;;;;;;;2.75;1.50;;;;;;;21.00;66.17;102313.84;5032278;28;20055;-68
2022/07/18 07:05:02;;;;;;;1.98;0.82;;;;;;;21.53;64.46;102298.47;5015254;28;20037;-70
2022/07/18 07:07:30;;;;;;;2.10;1.25;;;;;;;21.86;62.99;102314.16;5001973;28;20032;-68
2022/07/18 07:09:55;;;;;;;3.83;1.27;;;;;;;21.99;59.51;102268.59;5004886;28;20393;-69
2022/07/18 07:12:21;;;;;;;14.00;3.33;;;;;;;22.46;59.47;102317.50;5014685;28;20041;-68
2022/07/18 07:14:46;;;;;;;3.03;1.25;;;;;;;22.51;59.97;102310.50;5031104;28;20021;-68
2022/07/18 07:17:12;;;;;;;4.60;0.75;;;;;;;22.99;59.65;102305.28;5031806;28;20102;-70
2022/07/18 07:19:38;;;;;;;3.80;0.80;;;;;;;23.06;59.39;102308.06;5032563;28;20025;-69
2022/07/18 07:22:03;;;;;;;2.50;0.98;;;;;;;23.12;59.63;102307.25;5031810;28;20028;-69
2022/07/18 07:24:28;;;;;;;2.28;1.08;;;;;;;23.58;57.94;102303.97;5033308;28;20034;-70
2022/07/18 07:26:54;;;;;;;1.92;1.00;;;;;;;24.04;57.54;102305.19;5026089;28;20513;-69
2022/07/18 07:29:19;;;;;;;2.83;0.80;;;;;;;24.22;55.49;102297.31;5026585;28;20436;-69
2022/07/18 07:31:45;;;;;;;2.63;0.98;;;;;;;23.79;53.94;102291.41;5010647;28;20030;-68
2022/07/18 07:34:10;;;;;;;1.50;0.80;;;;;;;23.50;55.85;102265.59;5025657;28;20036;-70
2022/07/18 07:36:36;;;;;;;2.85;1.23;;;;;;;23.67;55.15;102298.38;5031462;28;20029;-69
2022/07/18 07:39:02;;;;;;;2.60;1.05;;;;;;;23.65;55.41;102298.59;5028820;28;20041;-70
2022/07/18 07:41:31;;;;;;;2.67;1.13;;;;;;;23.89;55.88;102296.41;5027688;28;20029;-68
2022/07/18 07:43:56;;;;;;;2.47;0.77;;;;;;;24.30;55.46;102300.84;5029874;28;20025;-68
2022/07/18 07:46:21;;;;;;;1.27;0.73;;;;;;;24.56;54.40;102297.34;5031188;28;20983;-68
2022/07/18 07:48:47;;;;;;;1.35;0.70;;;;;;;24.83;53.67;102293.59;5032042;28;20433;-68
2022/07/18 07:51:13;;;;;;;1.75;1.10;;;;;;;24.26;53.24;102294.19;5028863;28;20018;-68
2022/07/18 07:53:39;;;;;;;1.77;0.90;;;;;;;24.47;52.09;102283.19;5023798;28;20030;-68
2022/07/18 07:56:04;;;;;;;6.22;1.45;;;;;;;24.33;53.66;102285.06;5030957;28;20075;-69
2022/07/18 07:58:30;;;;;;;1.50;0.90;;;;;;;24.31;52.86;102283.63;5031722;28;20032;-70
2022/07/18 08:00:55;;;;;;;2.38;0.85;;;;;;;23.71;52.79;102268.13;5030481;28;20054;-68
2022/07/18 08:03:20;;;;;;;2.35;0.68;;;;;;;23.85;53.67;102252.03;5029777;28;20444;-69
2022/07/18 08:05:48;;;;;;;1.05;0.85;;;;;;;24.32;53.12;102258.28;5029528;28;20025;-68
2022/07/18 08:08:14;;;;;;;1.65;0.95;;;;;;;24.56;52.73;102259.56;5029927;28;20025;-69
2022/07/18 08:10:40;;;;;;;2.15;1.00;;;;;;;24.73;53.05;102276.16;5032911;28;20056;-69
2022/07/18 08:13:05;;;;;;;4.15;0.82;;;;;;;24.48;53.07;102279.50;5034854;28;20037;-69
2022/07/18 08:15:31;;;;;;;0.77;0.50;;;;;;;24.38;53.49;102281.75;5030345;28;20165;-69
2022/07/18 08:17:56;;;;;;;2.70;1.17;;;;;;;24.48;54.34;102284.91;5037514;28;20067;-68
2022/07/18 08:20:22;;;;;;;1.42;0.88;;;;;;;24.60;53.93;102282.41;5035305;28;20083;-68
2022/07/18 08:22:55;;;;;;;1.95;0.63;;;;;;;25.74;53.19;102283.75;5032609;28;20021;-68
2022/07/18 08:25:21;;;;;;;1.20;0.70;;;;;;;26.34;49.74;102282.53;5017830;28;20030;-69
2022/07/18 08:27:46;;;;;;;3.38;0.70;;;;;;;26.20;50.65;102277.25;5033529;28;20039;-69
2022/07/18 08:30:12;;;;;;;2.47;0.73;;;;;;;26.57;48.18;102277.38;5038822;28;20026;-68
2022/07/18 08:32:37;;;;;;;2.05;0.70;;;;;;;26.67;50.32;102272.28;5039899;28;20071;-68
2022/07/18 08:35:03;;;;;;;3.60;1.02;;;;;;;26.31;50.03;102273.00;5041032;28;20029;-68
2022/07/18 08:37:28;;;;;;;1.58;0.50;;;;;;;26.67;49.56;102271.44;5037204;28;20025;-68
2022/07/18 08:39:54;;;;;;;1.48;0.75;;;;;;;27.19;49.76;102274.63;5039121;28;20440;-68
2022/07/18 08:42:23;;;;;;;1.02;0.60;;;;;;;27.25;50.03;102256.66;5036251;28;20029;-68
2022/07/18 08:44:49;;;;;;;2.65;0.75;;;;;;;26.37;49.68;102265.84;5035619;28;20032;-68
2022/07/18 08:47:17;;;;;;;1.20;0.80;;;;;;;26.67;50.50;102261.47;5040242;28;20708;-68
2022/07/18 08:49:43;;;;;;;2.60;0.88;;;;;;;26.23;50.79;102265.13;5038885;28;20112;-68
2022/07/18 08:52:09;;;;;;;10.88;2.28;;;;;;;25.44;52.44;102222.16;5039836;28;20481;-68
2022/07/18 08:54:35;;;;;;;3.03;0.82;;;;;;;25.19;53.03;102248.19;5038051;28;20033;-68
2022/07/18 08:57:01;;;;;;;2.10;0.70;;;;;;;24.80;53.61;102252.69;5037985;28;20403;-68
2022/07/18 08:59:26;;;;;;;5.18;1.75;;;;;;;25.05;53.11;102269.03;5036559;28;20052;-67
2022/07/18 09:01:52;;;;;;;0.70;0.50;;;;;;;25.23;54.53;102262.97;5034878;28;20036;-68
2022/07/18 09:04:37;;;;;;;1.55;0.70;;;;;;;25.41;54.04;102263.13;5040226;28;20728;-68
2022/07/18 09:07:04;;;;;;;2.22;1.10;;;;;;;25.59;54.48;102258.88;5037936;28;20013;-68
2022/07/18 09:09:30;;;;;;;2.13;0.80;;;;;;;25.63;53.79;102255.53;5037715;28;20040;-68
2022/07/18 09:12:01;;;;;;;5.18;1.27;;;;;;;25.32;52.52;102248.19;5037561;28;20112;-68
2022/07/18 09:14:38;;;;;;;;;;;;;;;25.47;53.15;102244.38;5038713;28;20552;-67
2022/07/18 09:17:09;;;;;;;1.88;0.70;;;;;;;25.56;53.24;102251.19;5037652;28;19924;-67
2022/07/18 09:19:36;;;;;;;5.35;0.60;;;;;;;25.92;53.24;102236.25;5036086;28;20025;-67
2022/07/18 09:22:19;;;;;;;2.40;0.93;;;;;;;25.62;53.40;102248.44;5037082;28;20029;-68
2022/07/18 09:25:11;;;;;;;0.95;0.60;;;;;;;25.92;53.68;102244.34;5039296;28;20060;-67
2022/07/18 09:27:38;;;;;;;1.83;0.40;;;;;;;26.09;52.17;102239.22;5039214;28;20028;-68
2022/07/18 09:30:15;;;;;;;1.70;0.90;;;;;;;26.16;51.14;102232.72;5036755;28;20033;-68
2022/07/18 09:32:41;;;;;;;3.92;0.65;;;;;;;26.49;51.61;102237.00;5035562;28;20386;-68
2022/07/18 09:35:10;;;;;;;3.63;1.08;;;;;;;27.56;51.43;102243.97;5038611;28;20103;-67
2022/07/18 09:37:35;;;;;;;2.80;0.68;;;;;;;27.71;50.06;102244.38;5034759;28;20032;-68
2022/07/18 09:40:24;;;;;;;2.15;1.00;;;;;;;27.55;49.20;102254.00;5036081;28;20025;-68
2022/07/18 09:42:52;;;;;;;2.65;1.30;;;;;;;28.45;45.97;102252.19;5036053;28;20029;-68
2022/07/18 09:45:30;;;;;;;1.40;0.80;;;;;;;28.92;45.90;102246.75;5034927;28;20025;-68
2022/07/18 09:48:01;;;;;;;1.65;0.75;;;;;;;29.24;44.30;102251.78;5038093;28;20493;-68
2022/07/18 09:50:33;;;;;;;1.27;0.90;;;;;;;28.56;43.67;102261.44;5039767;28;20017;-68
2022/07/18 09:53:07;;;;;;;0.90;0.60;;;;;;;28.54;44.88;102258.94;5037918;28;20608;-68
2022/07/18 09:55:34;;;;;;;2.60;0.80;;;;;;;28.34;45.63;102259.28;5036591;28;20033;-68
2022/07/18 09:58:04;;;;;;;4.05;0.70;;;;;;;28.80;45.75;102262.25;5034147;28;20096;-67
2022/07/18 10:00:32;;;;;;;1.88;0.73;;;;;;;29.27;45.11;102267.63;5037803;28;20069;-68
2022/07/18 10:02:58;;;;;;;1.58;0.63;;;;;;;29.29;43.48;102265.47;5037237;28;20022;-68
2022/07/18 10:05:27;;;;;;;3.42;0.77;;;;;;;29.44;44.91;102260.34;5038875;28;20037;-69
2022/07/18 10:07:53;;;;;;;3.65;0.80;;;;;;;30.17;45.39;102254.28;5035338;28;20086;-69
2022/07/18 10:10:19;;;;;;;1.25;0.60;;;;;;;30.94;42.41;102253.53;5023933;28;20112;-67
2022/07/18 10:12:44;;;;;;;1.98;0.82;;;;;;;30.02;42.93;102263.03;5035676;28;20120;-69
2022/07/18 10:15:10;;;;;;;1.20;0.60;;;;;;;30.52;44.10;102257.56;5034410;28;20033;-67
2022/07/18 10:17:35;;;;;;;2.70;0.77;;;;;;;31.65;41.43;102250.00;5037024;28;20090;-67
2022/07/18 10:20:06;;;;;;;3.22;1.13;;;;;;;31.04;41.75;102237.31;5036454;28;20037;-67
2022/07/18 10:22:42;;;;;;;0.95;0.63;;;;;;;30.80;41.54;102238.63;5038817;28;20547;-67
2022/07/18 10:25:12;;;;;;;2.13;0.88;;;;;;;30.61;41.16;102249.78;5021246;28;20120;-67
2022/07/18 10:27:48;;;;;;;2.60;1.10;;;;;;;30.65;42.98;102253.66;5035789;28;20526;-67
2022/07/18 10:30:14;;;;;;;2.55;0.60;;;;;;;31.05;41.09;102240.84;5036332;28;20079;-67
2022/07/18 10:32:40;;;;;;;1.00;0.68;;;;;;;30.83;41.16;102262.63;5034853;28;20013;-68
2022/07/18 10:35:07;;;;;;;2.85;0.90;;;;;;;31.26;41.23;102250.09;5037863;28;20040;-67
2022/07/18 10:37:36;;;;;;;1.08;0.70;;;;;;;32.38;40.92;102253.06;5035461;28;20025;-67
2022/07/18 10:40:29;;;;;;;1.90;0.98;;;;;;;31.40;40.41;102248.59;5037430;28;20051;-68
2022/07/18 10:43:29;;;;;;;3.30;1.00;;;;;;;31.94;40.42;102245.88;5038937;28;20045;-68
2022/07/18 10:45:55;;;;;;;1.30;0.70;;;;;;;32.15;40.02;102246.09;5032811;28;20029;-67
2022/07/18 10:48:32;;;;;;;1.98;0.88;;;;;;;33.85;37.34;102234.75;5036918;28;20040;-67
2022/07/18 10:51:01;;;;;;;2.58;1.33;;;;;;;33.96;36.67;102241.88;5038991;28;20067;-67
2022/07/18 10:53:54;;;;;;;2.70;1.00;;;;;;;35.05;38.45;102245.19;5038456;28;20021;-68
2022/07/18 10:56:40;;;;;;;3.10;1.35;;;;;;;35.12;34.44;102243.78;5037303;28;20025;-68
2022/07/18 10:59:16;;;;;;;1.67;1.00;;;;;;;35.18;37.36;102239.13;5037226;28;20386;-67
2022/07/18 11:01:56;;;;;;;2.58;1.10;;;;;;;35.49;37.08;102241.66;5033799;28;20033;-67
2022/07/18 11:04:34;;;;;;;2.15;1.00;;;;;;;36.21;33.48;102239.16;5041663;28;20036;-67
2022/07/18 11:07:11;;;;;;;1.40;0.90;;;;;;;37.02;32.80;102242.06;5034919;28;20100;-67
2022/07/18 11:09:44;;;;;;;1.60;0.80;;;;;;;37.81;35.92;102231.28;5034162;28;20113;-67
2022/07/18 11:12:30;;;;;;;3.20;1.20;;;;;;;39.21;32.68;102232.94;5037473;28;20032;-68
2022/07/18 11:14:59;;;;;;;2.35;1.00;;;;;;;38.78;32.42;102230.56;5035110;28;20052;-68
2022/07/18 11:17:59;;;;;;;2.92;1.30;;;;;;;38.79;32.19;102232.22;5032432;28;20036;-68
2022/07/18 11:20:33;;;;;;;2.33;0.93;;;;;;;36.64;32.65;102231.03;5023348;28;20091;-68
2022/07/18 11:22:59;;;;;;;2.28;1.30;;;;;;;36.13;33.64;102220.56;5025299;28;20421;-67
2022/07/18 11:25:28;;;;;;;1.38;0.70;;;;;;;36.12;37.32;102224.41;5023950;28;20022;-67
2022/07/18 11:27:54;;;;;;;3.03;1.05;;;;;;;38.07;34.71;102214.31;5024609;28;20512;-68